Audley End, United Kingdom
Current Conditions -  °F | °C
As of 7:50 PM on Thursday 29 Jan 2015 (Local Time) from EGUW Reporting Station
Few Clouds Few Clouds  
Wind Chill: 23°   Ceiling: Unl
Heat Index: 34°   Visibility: 6mi
Dew Point: 30°   Wind: 17mph
Humidity: 87%   Direction: 290°WNW
Pressure: 28.79"   Gusts: NA
Location:  52.16°N, 0.67°E
Report Text: EGUW 291950Z 29015KT 9999 FEW020 01/M01 Q0975 BLU TEMPO 6000 -SHSN SCT015 WHT
Loading
Personal Weather Stations






























Interactive Weather Map New forecast layout! Learn more

10-Day Weather Forecast

Advertisements
Track Severe Weather on mobile